Sagehen Creek Weather observations

Data are for observation ending at time listed.
 Day   Time    Ave.   Ave.  Ave.  Vector   Max.   Stn.    Total    Solar   Ave.  
  of    of     Air    Rel.  Wind   Wind    Wind   Baro.  Precip.   Rad.    Soil  
Year   Day     Temp.  Hum.  Speed  Dir.    Gust   Pres.                    Temp. 
2014   (PST)    F      %     mph   deg.    mph     mb.     in.     W/m2     F   
------------------------------------------------------------------------------
 353   18:40   32.3    94    0.5   316      2.0   836.0   21.14       0    999.0
 353   18:50   32.3    94    0.5   281      2.2   835.8   21.15       0    999.0
 353   19:00   32.7    94    0.8   281      3.2   835.6   21.15       0    999.0
 353   19:10   32.9    94    0.9   319      1.8   835.9   21.15       0    999.0
 353   19:20   32.7    94    0.1   320      1.3   835.7   21.15       0    999.0
 353   19:30   32.6    94    0.2   330      1.1   835.6   21.15       0    999.0
 353   19:40   32.6    94    0.3   329      2.0   835.9   21.15       0    999.0
 353   19:50   32.5    94    0.0     0      0.0   835.9   21.15       0    999.0
 353   20:00   32.4    94    0.2    37      1.2   835.8   21.15       0    999.0
 353   20:10   32.2    94    1.1    52      2.7   835.2   21.15       0    999.0
 353   20:20   32.2    94    0.6    26      2.3   835.4   21.15       0    999.0
 353   20:30   32.2    94    0.7    39      1.9   835.6   21.16       0    999.0
 353   20:40   32.3    94    0.7    45      2.4   835.4   21.16       0    999.0
 353   20:50   32.3    94    1.1    64      3.3   835.5   21.16       0    999.0
 353   21:00   32.4    94    0.3   358      1.4   835.6   21.16       0    999.0
 353   21:10   32.3    94    0.8    48      1.8   835.9   21.16       0    999.0
 353   21:20   32.2    94    0.4    43      1.7   835.8   21.16       0    999.0
 353   21:30   32.4    94    1.1    55      3.8   835.6   21.16       0    999.0
 353   21:40   32.3    94    0.4    70      2.1   836.3   21.16       0    999.0
 353   21:50   32.3    94    0.6    47      3.1   836.2   21.16       0    999.0
 353   22:00   32.4    94    0.0    33      0.5   836.2   21.16       0    999.0
 353   22:10   32.2    94    0.6    60      1.9   836.2   21.16       0    999.0
 353   22:20   32.2    94    0.4    52      3.8   836.4   21.16       0    999.0
 353   22:30   32.4    94    1.1   296      5.8   836.5   21.16       0    999.0
 353   22:40   33.0    94    0.8   298      2.3   836.2   21.16       0    999.0
 353   22:50   32.6    94    0.8   283      2.4   836.1   21.16       0    999.0
 353   23:00   32.4    94    0.8   313      3.0   835.9   21.16       0    999.0
 353   23:10   32.3    94    0.3   317      1.4   836.3   21.16       0    999.0
 353   23:20   32.4    94    0.5    42      2.1   836.0   21.16       0    999.0
 353   23:30   32.3    94    0.6    23      3.2   835.8   21.16       0    999.0
 353   23:40   32.3    94    0.1    15      2.0   836.1   21.16       0    999.0
 353   23:50   32.3    94    1.3    56      7.8   835.9   21.16       0    999.0
 354    0:00   32.3    94    1.0    10      3.0   835.7   21.16       0    999.0
 354    0:10   32.3    94    1.2     0      3.0   835.3   21.16       0    999.0
 354    0:20   32.3    94    1.3    35      6.4   835.6   21.16       0    999.0
 354    0:30   32.3    94    0.8    29      3.8   835.9   21.16       0    999.0
 354    0:40   32.3    94    0.9   342      3.3   835.8   21.17       0    999.0
 354    0:50   32.4    94    1.2    10      4.2   835.7   21.17       0    999.0
 354    1:00   32.3    94    0.7     8      3.1   835.6   21.17       0    999.0
 354    1:10   32.3    94    1.2    50      4.8   835.7   21.17       0    999.0
 354    1:20   32.9    94    2.0   330      6.8   835.2   21.17       0    999.0
 354    1:30   33.3    94    1.3   338      4.0   834.8   21.17       0    999.0
 354    1:40   33.1    94    0.7   352      3.4   835.3   21.17       0    999.0
 354    1:50   32.8    93    0.6   356      3.9   835.2   21.17       0    999.0
 354    2:00   33.5    93    1.7    10      5.3   835.0   21.17       0    999.0
 354    2:10   33.8    92    1.2   350      2.6   834.8   21.17       0    999.0
 354    2:20   33.2    92    0.9   352      4.0   834.9   21.17       0    999.0
 354    2:30   33.1    93    1.9    94      6.3   835.1   21.17       0    999.0
 354    2:40   34.1    91    2.3   285      5.8   834.6   21.17       0    999.0
 354    2:50   34.5    89    1.0   302      3.4   834.8   21.17       0    999.0
 354    3:00   34.2    89    1.6   258      4.8   834.9   21.17       0    999.0
 354    3:10   33.9    89    1.1   289      3.7   835.6   21.17       0    999.0
 354    3:20   33.4    90    1.2   262      3.3   835.3   21.17       0    999.0
 354    3:30   33.0    91    1.1    34      2.8   835.1   21.17       0    999.0
 354    3:40   32.7    92    0.9   340      2.3   835.3   21.17       0    999.0
 354    3:50   32.5    93    1.5    40      4.1   835.2   21.17       0    999.0
 354    4:00   32.5    93    1.2    21      4.0   835.1   21.18       0    999.0
 354    4:10   32.8    93    1.3   318      4.9   835.3   21.18       0    999.0
 354    4:20   32.8    93    0.4    43      1.8   835.3   21.18       0    999.0
 354    4:30   32.7    93    0.7   295      2.6   835.4   21.19       0    999.0
 354    4:40   32.7    93    0.6   303      2.0   834.8   21.19       0    999.0
 354    4:50   33.0    93    1.1   315      3.1   835.0   21.19       0    999.0
 354    5:00   33.0    93    1.0   337      2.7   835.2   21.19       0    999.0
 354    5:10   33.0    92    0.8   307      3.5   835.4   21.19       0    999.0
 354    5:20   33.1    92    1.2   325      3.1   835.1   21.20       0    999.0
 354    5:30   33.3    90    2.8   248      9.5   834.8   21.20       0    999.0
 354    5:40   33.4    85    1.9   224      6.5   835.4   21.20       0    999.0
 354    5:50   33.2    87    1.6   356      7.9   835.2   21.20       0    999.0
 354    6:00   33.1    89    1.6    31      3.7   835.1   21.20       0    999.0
 354    6:10   32.6    91    1.6    58      3.4   835.6   21.20       0    999.0
 354    6:20   32.5    92    1.3    84      3.7   835.6   21.20       0    999.0
 354    6:30   32.6    92    1.7    41      3.7   835.5   21.20       0    999.0
 354    6:40   32.8    90    2.7    64      4.9   835.2   21.20       0    999.0
 354    6:50   33.0    88    1.8    18      3.8   835.4   21.20       0    999.0
 354    7:00   33.0    88    1.4   346      4.5   835.6   21.20       0    999.0
 354    7:10   32.8    90    1.4   339      3.3   835.9   21.20       0    999.0
 354    7:20   32.6    91    0.8    25      2.9   835.9   21.20       1    999.0
 354    7:30   32.3    92    1.7    23      4.7   835.9   21.20       1    999.0
 354    7:40   32.5    92    0.8    35      2.1   835.7   21.20       3    999.0
 354    7:50   32.5    92    0.5   344      1.5   835.6   21.20       7    999.0
 354    8:00   32.6    93    0.4    47      1.9   835.5   21.20      15    999.0
 354    8:10   33.0    92    1.1   360      3.2   835.9   21.20      18    999.0
 354    8:20   33.4    90    1.5   357      3.0   835.8   21.20      18    999.0
 354    8:30   33.4    90    2.2    46      6.6   835.7   21.20      21    999.0
 354    8:40   34.0    88    2.1    28      5.0   835.8   21.20      34    999.0
 354    8:50   34.0    89    2.0    37      8.8   836.0   21.20      24    999.0
 354    9:00   34.5    87    1.8   330      6.5   836.3   21.20      13    999.0
 354    9:10   34.3    89    1.0    20      2.6   836.0   21.20      22    999.0
 354    9:20   34.0    91    1.6    39      4.2   836.1   21.20      18    999.0
 354    9:30   34.0    91    1.3    23      3.3   836.1   21.20      17    999.0
 354    9:40   33.8    91    1.9    31      4.8   836.6   21.20      17    999.0
 354    9:50   33.8    90    1.4    41      2.6   836.5   21.20      26    999.0
 354   10:00   33.9    89    1.7   348      5.3   836.4   21.20      23    999.0
 354   10:10   34.2    86    1.6   301      6.3   836.9   21.20      35    999.0
 354   10:20   34.1    88    2.2   291      5.8   837.0   21.20      35    999.0
 354   10:30   33.9    88    1.9   277      4.0   837.0   21.20      31    999.0
 354   10:40   33.8    90    1.8   264      5.0   836.8   21.20      45    999.0
 354   10:50   33.8    91    1.6   276      3.4   836.9   21.20      37    999.0
 354   11:00   34.1    90    1.8   288      4.2   837.0   21.20      34    999.0
 354   11:10   34.3    89    1.7   294      5.3   836.3   21.20      41    999.0
 354   11:20   34.6    87    2.1   303      4.7   836.4   21.20      40    999.0
 354   11:30   34.8    86    1.6   318      4.9   836.4   21.20      51    999.0
 354   11:40   34.9    88    0.9     8      3.3   836.1   21.20      64    999.0
 354   11:50   35.2    86    2.1    59      4.5   835.9   21.20      71    999.0
 354   12:00   35.0    88    2.4    39      5.7   835.6   21.20      68    999.0
 354   12:10   35.1    87    3.3    71      6.5   836.1   21.20      86    999.0
 354   12:20   35.3    86    2.3    68      4.9   835.9   21.20      80    999.0
 354   12:30   35.2    88    1.9    69      5.1   835.8   21.20      92    999.0
 354   12:40   35.4    86    3.2    78      5.7   836.1   21.19     114    999.0
 354   12:50   36.1    84    2.9    62      6.1   835.8   21.20      99    999.0
 354   13:00   35.9    85    2.7    79      8.5   835.6   21.19      94    999.0
 354   13:10   36.2    85    1.8    73      5.0   835.7   21.19     108    999.0
 354   13:20   36.4    85    2.1    36      4.4   836.0   21.19     166    999.0
 354   13:30   36.5    84    3.1    66      6.5   836.2   21.19     143    999.0
 354   13:40   36.6    82    2.8    97      7.3   835.6   21.19     125    999.0
 354   13:50   36.6    82    2.7    65      7.5   836.0   21.19      84    999.0
 354   14:00   35.9    86    2.4    72      6.7   836.3   21.19      71    999.0
 354   14:10   36.4    81    3.3    66      7.2   835.8   21.19     153    999.0
 354   14:20   37.0    83    4.4    82      9.0   835.9   21.19     230    999.0
 354   14:30   37.4    82    2.8    96      5.0   836.0   21.19     254    999.0
 354   14:40   38.0    78    3.0   126      8.0   835.9   21.19     163    999.0
 354   14:50   38.3    77    2.5    92      4.2   835.8   21.19     136    999.0
 354   15:00   38.0    78    3.1    95      5.5   835.7   21.19     137    999.0
 354   15:10   37.4    79    3.2   132      8.1   836.3   21.19      97    999.0
 354   15:20   37.2    80    2.0   115      3.7   836.1   21.19     153    999.0
 354   15:30   37.4    79    2.7   138      4.2   836.0   21.19      89    999.0
 354   15:40   37.0    81    2.4   151      4.5   836.3   21.19      75    999.0
 354   15:50   36.6    82    2.5   140      5.3   836.2   21.19      36    999.0
 354   16:00   36.2    83    2.6   138      4.6   836.1   21.19      29    999.0
 354   16:10   36.2    83    2.5   117      6.4   836.6   21.19      31    999.0
 354   16:20   36.0    84    3.6   115      7.1   836.6   21.19      22    999.0
 354   16:30   36.1    83    3.3   124      6.9   836.5   21.19      10    999.0
 354   16:40   36.1    84    2.5   138      5.5   836.4   21.19       3    999.0
 354   16:50   35.9    84    2.0   136      5.1   836.6   21.19       1    999.0
 354   17:00   35.7    85    1.6   113      6.4   836.7   21.19       0    999.0
 354   17:10   35.4    86    1.9   161      5.1   836.6   21.19       0    999.0
 354   17:20   35.2    87    2.0    75      4.8   836.7   21.19       0    999.0
 354   17:30   35.0    88    1.8    48      4.7   836.7   21.19       0    999.0
 354   17:40   34.5    89    1.8    83      6.0   836.4   21.19       0    999.0
 354   17:50   34.0    90    1.9    60      6.4   836.5   21.19       0    999.0
 354   18:00   34.5    91    1.4    41      5.2   836.6   21.19       0    999.0
 354   18:10   35.1    89    1.8    92      5.6   836.4   21.19       0    999.0
 354   18:20   35.1    89    1.5    20      3.6   836.4   21.19       0    999.0
 354   18:30   35.2    89    1.6    74      4.8   836.5   21.19       0    999.0

Return to Sagehen Creek graphs page.


Western Regional Climate Center,wrcc@dri.edu